sensor_id;sensor_type;location;lat;lon;timestamp;P1;durP1;ratioP1;P2;durP2;ratioP2
37445;SDS011;23307;51.136;14.942;2023-03-20T00:00:14;22.98;;;18.85;;
37445;SDS011;23307;51.136;14.942;2023-03-20T00:03:01;24.52;;;19.00;;
37445;SDS011;23307;51.136;14.942;2023-03-20T00:05:27;23.55;;;19.13;;
37445;SDS011;23307;51.136;14.942;2023-03-20T00:07:54;21.38;;;18.10;;
37445;SDS011;23307;51.136;14.942;2023-03-20T00:10:21;25.13;;;18.90;;
37445;SDS011;23307;51.136;14.942;2023-03-20T00:12:51;21.75;;;18.27;;
37445;SDS011;23307;51.136;14.942;2023-03-20T00:15:22;21.58;;;19.05;;
37445;SDS011;23307;51.136;14.942;2023-03-20T00:17:51;22.08;;;19.35;;
37445;SDS011;23307;51.136;14.942;2023-03-20T00:20:17;25.30;;;19.13;;
37445;SDS011;23307;51.136;14.942;2023-03-20T00:22:42;21.05;;;18.42;;
37445;SDS011;23307;51.136;14.942;2023-03-20T00:25:19;23.02;;;18.85;;
37445;SDS011;23307;51.136;14.942;2023-03-20T00:27:46;23.02;;;19.10;;
37445;SDS011;23307;51.136;14.942;2023-03-20T00:30:18;23.25;;;20.40;;
37445;SDS011;23307;51.136;14.942;2023-03-20T00:32:45;31.20;;;24.02;;
37445;SDS011;23307;51.136;14.942;2023-03-20T00:35:15;25.77;;;21.02;;
37445;SDS011;23307;51.136;14.942;2023-03-20T00:37:43;22.48;;;19.92;;
37445;SDS011;23307;51.136;14.942;2023-03-20T00:40:08;22.25;;;19.80;;
37445;SDS011;23307;51.136;14.942;2023-03-20T00:42:35;22.55;;;18.90;;
37445;SDS011;23307;51.136;14.942;2023-03-20T00:45:01;22.83;;;19.48;;
37445;SDS011;23307;51.136;14.942;2023-03-20T00:47:26;23.08;;;19.17;;
37445;SDS011;23307;51.136;14.942;2023-03-20T00:49:54;23.35;;;18.88;;
37445;SDS011;23307;51.136;14.942;2023-03-20T00:52:20;22.23;;;19.10;;
37445;SDS011;23307;51.136;14.942;2023-03-20T00:54:46;24.48;;;20.33;;
37445;SDS011;23307;51.136;14.942;2023-03-20T00:57:19;24.42;;;19.83;;
37445;SDS011;23307;51.136;14.942;2023-03-20T00:59:52;21.67;;;19.35;;
37445;SDS011;23307;51.136;14.942;2023-03-20T01:02:27;23.23;;;20.05;;
37445;SDS011;23307;51.136;14.942;2023-03-20T01:04:54;21.52;;;18.55;;
37445;SDS011;23307;51.136;14.942;2023-03-20T01:07:20;23.15;;;19.40;;
37445;SDS011;23307;51.136;14.942;2023-03-20T01:09:46;22.05;;;18.65;;
37445;SDS011;23307;51.136;14.942;2023-03-20T01:12:11;21.95;;;19.23;;
37445;SDS011;23307;51.136;14.942;2023-03-20T01:14:38;23.80;;;19.55;;
37445;SDS011;23307;51.136;14.942;2023-03-20T01:17:03;21.42;;;19.02;;
37445;SDS011;23307;51.136;14.942;2023-03-20T01:19:29;22.67;;;19.75;;
37445;SDS011;23307;51.136;14.942;2023-03-20T01:21:54;23.60;;;20.27;;
37445;SDS011;23307;51.136;14.942;2023-03-20T01:24:20;21.92;;;18.85;;
37445;SDS011;23307;51.136;14.942;2023-03-20T01:26:46;22.20;;;18.73;;
37445;SDS011;23307;51.136;14.942;2023-03-20T01:29:16;21.48;;;19.27;;
37445;SDS011;23307;51.136;14.942;2023-03-20T01:31:42;23.30;;;20.15;;
37445;SDS011;23307;51.136;14.942;2023-03-20T01:34:09;21.55;;;18.52;;
37445;SDS011;23307;51.136;14.942;2023-03-20T01:36:34;25.02;;;20.45;;
37445;SDS011;23307;51.136;14.942;2023-03-20T01:39:01;21.55;;;18.80;;
37445;SDS011;23307;51.136;14.942;2023-03-20T01:41:26;21.77;;;19.08;;
37445;SDS011;23307;51.136;14.942;2023-03-20T01:43:53;23.38;;;19.08;;
37445;SDS011;23307;51.136;14.942;2023-03-20T01:46:23;23.92;;;19.02;;
37445;SDS011;23307;51.136;14.942;2023-03-20T01:48:57;22.48;;;18.77;;
37445;SDS011;23307;51.136;14.942;2023-03-20T01:53:54;21.60;;;18.08;;
37445;SDS011;23307;51.136;14.942;2023-03-20T01:56:23;23.20;;;19.15;;
37445;SDS011;23307;51.136;14.942;2023-03-20T01:58:53;24.80;;;19.25;;
37445;SDS011;23307;51.136;14.942;2023-03-20T02:01:23;22.65;;;19.50;;
37445;SDS011;23307;51.136;14.942;2023-03-20T02:03:49;24.88;;;18.92;;
37445;SDS011;23307;51.136;14.942;2023-03-20T02:06:15;24.15;;;20.80;;
37445;SDS011;23307;51.136;14.942;2023-03-20T02:08:49;22.33;;;18.58;;
37445;SDS011;23307;51.136;14.942;2023-03-20T02:11:17;21.23;;;18.13;;
37445;SDS011;23307;51.136;14.942;2023-03-20T02:13:46;22.65;;;18.23;;
37445;SDS011;23307;51.136;14.942;2023-03-20T02:16:15;22.35;;;16.80;;
37445;SDS011;23307;51.136;14.942;2023-03-20T02:18:42;19.33;;;16.58;;
37445;SDS011;23307;51.136;14.942;2023-03-20T02:33:23;20.02;;;16.52;;
37445;SDS011;23307;51.136;14.942;2023-03-20T02:36:25;19.58;;;15.85;;
37445;SDS011;23307;51.136;14.942;2023-03-20T02:41:41;17.90;;;14.07;;
37445;SDS011;23307;51.136;14.942;2023-03-20T02:44:21;18.05;;;15.40;;
37445;SDS011;23307;51.136;14.942;2023-03-20T02:49:47;21.15;;;16.42;;
37445;SDS011;23307;51.136;14.942;2023-03-20T02:52:26;14.88;;;12.82;;
37445;SDS011;23307;51.136;14.942;2023-03-20T02:55:05;17.92;;;14.15;;
37445;SDS011;23307;51.136;14.942;2023-03-20T02:57:41;17.00;;;13.50;;
37445;SDS011;23307;51.136;14.942;2023-03-20T03:00:12;18.55;;;14.50;;
37445;SDS011;23307;51.136;14.942;2023-03-20T03:02:51;17.38;;;13.90;;
37445;SDS011;23307;51.136;14.942;2023-03-20T03:05:21;15.98;;;13.23;;
37445;SDS011;23307;51.136;14.942;2023-03-20T03:07:51;18.83;;;16.23;;
37445;SDS011;23307;51.136;14.942;2023-03-20T03:10:21;21.75;;;18.30;;
37445;SDS011;23307;51.136;14.942;2023-03-20T03:12:51;21.45;;;18.45;;
37445;SDS011;23307;51.136;14.942;2023-03-20T03:15:20;20.83;;;17.90;;
37445;SDS011;23307;51.136;14.942;2023-03-20T03:17:53;19.13;;;17.08;;
37445;SDS011;23307;51.136;14.942;2023-03-20T03:20:29;17.35;;;14.98;;
37445;SDS011;23307;51.136;14.942;2023-03-20T03:22:58;17.60;;;13.60;;
37445;SDS011;23307;51.136;14.942;2023-03-20T03:25:25;13.30;;;11.90;;
37445;SDS011;23307;51.136;14.942;2023-03-20T03:28:02;13.05;;;11.07;;
37445;SDS011;23307;51.136;14.942;2023-03-20T03:30:33;13.38;;;11.88;;
37445;SDS011;23307;51.136;14.942;2023-03-20T03:35:48;15.43;;;12.27;;
37445;SDS011;23307;51.136;14.942;2023-03-20T03:38:26;14.25;;;12.75;;
37445;SDS011;23307;51.136;14.942;2023-03-20T03:49:07;13.90;;;11.85;;
37445;SDS011;23307;51.136;14.942;2023-03-20T03:51:37;13.38;;;11.65;;
37445;SDS011;23307;51.136;14.942;2023-03-20T03:54:07;12.82;;;11.23;;
37445;SDS011;23307;51.136;14.942;2023-03-20T03:56:42;13.52;;;11.05;;
37445;SDS011;23307;51.136;14.942;2023-03-20T03:59:13;14.15;;;10.45;;
37445;SDS011;23307;51.136;14.942;2023-03-20T04:01:45;14.10;;;10.20;;
37445;SDS011;23307;51.136;14.942;2023-03-20T04:04:13;11.10;;;9.73;;
37445;SDS011;23307;51.136;14.942;2023-03-20T04:06:40;11.25;;;9.85;;
37445;SDS011;23307;51.136;14.942;2023-03-20T04:09:06;12.05;;;10.20;;
37445;SDS011;23307;51.136;14.942;2023-03-20T04:11:32;10.13;;;8.57;;
37445;SDS011;23307;51.136;14.942;2023-03-20T04:13:59;11.40;;;9.80;;
37445;SDS011;23307;51.136;14.942;2023-03-20T04:16:25;11.57;;;10.10;;
37445;SDS011;23307;51.136;14.942;2023-03-20T04:18:51;12.15;;;10.52;;
37445;SDS011;23307;51.136;14.942;2023-03-20T04:21:17;11.07;;;9.27;;
37445;SDS011;23307;51.136;14.942;2023-03-20T04:23:43;10.13;;;9.02;;
37445;SDS011;23307;51.136;14.942;2023-03-20T04:26:09;11.32;;;9.30;;
37445;SDS011;23307;51.136;14.942;2023-03-20T04:28:35;11.90;;;9.80;;
37445;SDS011;23307;51.136;14.942;2023-03-20T04:31:01;12.02;;;10.25;;
37445;SDS011;23307;51.136;14.942;2023-03-20T04:33:26;12.98;;;10.35;;
37445;SDS011;23307;51.136;14.942;2023-03-20T04:35:53;13.15;;;9.88;;
37445;SDS011;23307;51.136;14.942;2023-03-20T04:38:19;14.52;;;10.45;;
37445;SDS011;23307;51.136;14.942;2023-03-20T04:40:45;11.18;;;9.30;;
37445;SDS011;23307;51.136;14.942;2023-03-20T04:43:12;11.52;;;8.65;;
37445;SDS011;23307;51.136;14.942;2023-03-20T04:45:38;12.70;;;9.68;;
37445;SDS011;23307;51.136;14.942;2023-03-20T04:48:04;13.05;;;9.95;;
37445;SDS011;23307;51.136;14.942;2023-03-20T04:50:30;11.60;;;9.73;;
37445;SDS011;23307;51.136;14.942;2023-03-20T04:52:55;12.90;;;9.32;;
37445;SDS011;23307;51.136;14.942;2023-03-20T04:55:21;11.52;;;10.15;;
37445;SDS011;23307;51.136;14.942;2023-03-20T04:57:47;14.00;;;10.15;;
37445;SDS011;23307;51.136;14.942;2023-03-20T05:00:13;10.25;;;8.73;;
37445;SDS011;23307;51.136;14.942;2023-03-20T05:02:39;10.07;;;9.02;;
37445;SDS011;23307;51.136;14.942;2023-03-20T05:05:05;12.90;;;8.73;;
37445;SDS011;23307;51.136;14.942;2023-03-20T05:07:31;10.98;;;7.90;;
37445;SDS011;23307;51.136;14.942;2023-03-20T05:09:57;10.43;;;8.63;;
37445;SDS011;23307;51.136;14.942;2023-03-20T05:12:22;8.93;;;7.82;;
37445;SDS011;23307;51.136;14.942;2023-03-20T05:14:48;9.00;;;8.00;;
37445;SDS011;23307;51.136;14.942;2023-03-20T05:17:14;10.45;;;7.22;;
37445;SDS011;23307;51.136;14.942;2023-03-20T05:19:40;8.40;;;7.50;;
37445;SDS011;23307;51.136;14.942;2023-03-20T05:22:07;8.07;;;6.93;;
37445;SDS011;23307;51.136;14.942;2023-03-20T05:24:32;8.80;;;7.70;;
37445;SDS011;23307;51.136;14.942;2023-03-20T05:26:58;8.23;;;6.80;;
37445;SDS011;23307;51.136;14.942;2023-03-20T05:29:23;7.47;;;6.78;;
37445;SDS011;23307;51.136;14.942;2023-03-20T05:31:49;7.85;;;7.05;;
37445;SDS011;23307;51.136;14.942;2023-03-20T05:34:14;7.93;;;7.03;;
37445;SDS011;23307;51.136;14.942;2023-03-20T05:36:40;9.05;;;7.13;;
37445;SDS011;23307;51.136;14.942;2023-03-20T05:39:05;9.20;;;7.38;;
37445;SDS011;23307;51.136;14.942;2023-03-20T05:41:31;10.93;;;7.40;;
37445;SDS011;23307;51.136;14.942;2023-03-20T05:43:57;10.35;;;7.75;;
37445;SDS011;23307;51.136;14.942;2023-03-20T05:46:22;8.77;;;7.88;;
37445;SDS011;23307;51.136;14.942;2023-03-20T05:48:48;9.43;;;7.88;;
37445;SDS011;23307;51.136;14.942;2023-03-20T05:51:13;10.82;;;8.02;;
37445;SDS011;23307;51.136;14.942;2023-03-20T05:53:39;10.43;;;7.85;;
37445;SDS011;23307;51.136;14.942;2023-03-20T05:56:05;8.40;;;7.22;;
37445;SDS011;23307;51.136;14.942;2023-03-20T05:58:31;7.50;;;6.45;;
37445;SDS011;23307;51.136;14.942;2023-03-20T06:00:56;9.20;;;7.72;;
37445;SDS011;23307;51.136;14.942;2023-03-20T06:03:22;10.38;;;7.15;;
37445;SDS011;23307;51.136;14.942;2023-03-20T06:05:48;8.15;;;6.65;;
37445;SDS011;23307;51.136;14.942;2023-03-20T06:08:13;9.18;;;7.78;;
37445;SDS011;23307;51.136;14.942;2023-03-20T06:10:39;8.43;;;7.20;;
37445;SDS011;23307;51.136;14.942;2023-03-20T06:13:05;11.02;;;7.22;;
37445;SDS011;23307;51.136;14.942;2023-03-20T06:15:30;8.77;;;6.68;;
37445;SDS011;23307;51.136;14.942;2023-03-20T06:17:56;8.85;;;6.97;;
37445;SDS011;23307;51.136;14.942;2023-03-20T06:20:22;6.82;;;5.80;;
37445;SDS011;23307;51.136;14.942;2023-03-20T06:22:48;7.60;;;6.82;;
37445;SDS011;23307;51.136;14.942;2023-03-20T06:25:14;7.88;;;6.47;;
37445;SDS011;23307;51.136;14.942;2023-03-20T06:27:39;8.68;;;6.75;;
37445;SDS011;23307;51.136;14.942;2023-03-20T06:30:05;7.90;;;6.75;;
37445;SDS011;23307;51.136;14.942;2023-03-20T06:32:31;8.57;;;6.55;;
37445;SDS011;23307;51.136;14.942;2023-03-20T06:34:57;7.28;;;6.55;;
37445;SDS011;23307;51.136;14.942;2023-03-20T06:37:22;9.25;;;7.13;;
37445;SDS011;23307;51.136;14.942;2023-03-20T06:39:48;9.10;;;6.78;;
37445;SDS011;23307;51.136;14.942;2023-03-20T06:42:14;6.80;;;6.10;;
37445;SDS011;23307;51.136;14.942;2023-03-20T06:44:40;7.85;;;6.63;;
37445;SDS011;23307;51.136;14.942;2023-03-20T06:47:06;7.75;;;6.38;;
37445;SDS011;23307;51.136;14.942;2023-03-20T06:49:32;7.47;;;6.57;;
37445;SDS011;23307;51.136;14.942;2023-03-20T06:51:57;7.50;;;6.68;;
37445;SDS011;23307;51.136;14.942;2023-03-20T06:54:23;6.50;;;5.90;;
37445;SDS011;23307;51.136;14.942;2023-03-20T06:56:49;8.27;;;5.78;;
37445;SDS011;23307;51.136;14.942;2023-03-20T06:59:15;6.95;;;6.13;;
37445;SDS011;23307;51.136;14.942;2023-03-20T07:01:40;7.22;;;6.28;;
37445;SDS011;23307;51.136;14.942;2023-03-20T07:04:06;6.75;;;5.85;;
37445;SDS011;23307;51.136;14.942;2023-03-20T07:06:32;7.03;;;5.93;;
37445;SDS011;23307;51.136;14.942;2023-03-20T07:08:58;6.25;;;5.65;;
37445;SDS011;23307;51.136;14.942;2023-03-20T07:11:23;7.00;;;5.35;;
37445;SDS011;23307;51.136;14.942;2023-03-20T07:13:48;7.05;;;5.30;;
37445;SDS011;23307;51.136;14.942;2023-03-20T07:16:14;6.50;;;5.18;;
37445;SDS011;23307;51.136;14.942;2023-03-20T07:18:40;6.78;;;5.55;;
37445;SDS011;23307;51.136;14.942;2023-03-20T07:21:05;7.60;;;5.80;;
37445;SDS011;23307;51.136;14.942;2023-03-20T07:23:32;7.40;;;5.47;;
37445;SDS011;23307;51.136;14.942;2023-03-20T07:26:01;7.72;;;6.03;;
37445;SDS011;23307;51.136;14.942;2023-03-20T07:28:27;9.20;;;6.65;;
37445;SDS011;23307;51.136;14.942;2023-03-20T07:30:54;7.05;;;6.30;;
37445;SDS011;23307;51.136;14.942;2023-03-20T07:33:19;7.03;;;6.10;;
37445;SDS011;23307;51.136;14.942;2023-03-20T07:35:45;7.30;;;6.28;;
37445;SDS011;23307;51.136;14.942;2023-03-20T07:38:10;7.63;;;6.38;;
37445;SDS011;23307;51.136;14.942;2023-03-20T07:40:36;6.13;;;5.53;;
37445;SDS011;23307;51.136;14.942;2023-03-20T07:43:01;6.95;;;5.88;;
37445;SDS011;23307;51.136;14.942;2023-03-20T07:45:27;6.28;;;5.68;;
37445;SDS011;23307;51.136;14.942;2023-03-20T07:47:53;6.32;;;5.70;;
37445;SDS011;23307;51.136;14.942;2023-03-20T07:50:18;6.38;;;5.72;;
37445;SDS011;23307;51.136;14.942;2023-03-20T07:52:47;7.05;;;6.32;;
37445;SDS011;23307;51.136;14.942;2023-03-20T07:55:13;6.93;;;6.22;;
37445;SDS011;23307;51.136;14.942;2023-03-20T07:57:39;7.40;;;6.70;;
37445;SDS011;23307;51.136;14.942;2023-03-20T08:00:05;9.07;;;6.15;;
37445;SDS011;23307;51.136;14.942;2023-03-20T08:02:32;7.50;;;6.65;;
37445;SDS011;23307;51.136;14.942;2023-03-20T08:04:58;6.72;;;6.03;;
37445;SDS011;23307;51.136;14.942;2023-03-20T08:07:24;6.32;;;5.72;;
37445;SDS011;23307;51.136;14.942;2023-03-20T08:09:49;8.50;;;6.53;;
37445;SDS011;23307;51.136;14.942;2023-03-20T08:12:16;10.20;;;6.60;;
37445;SDS011;23307;51.136;14.942;2023-03-20T08:14:42;6.97;;;6.28;;
37445;SDS011;23307;51.136;14.942;2023-03-20T08:17:08;9.23;;;6.90;;
37445;SDS011;23307;51.136;14.942;2023-03-20T08:19:33;8.10;;;6.53;;
37445;SDS011;23307;51.136;14.942;2023-03-20T08:22:00;7.03;;;6.28;;
37445;SDS011;23307;51.136;14.942;2023-03-20T08:24:25;4.63;;;3.83;;
37445;SDS011;23307;51.136;14.942;2023-03-20T08:26:51;4.30;;;3.60;;
37445;SDS011;23307;51.136;14.942;2023-03-20T08:29:17;4.00;;;3.55;;
37445;SDS011;23307;51.136;14.942;2023-03-20T08:31:43;3.75;;;3.30;;
37445;SDS011;23307;51.136;14.942;2023-03-20T08:34:09;4.68;;;3.40;;
37445;SDS011;23307;51.136;14.942;2023-03-20T08:36:35;5.55;;;3.53;;
37445;SDS011;23307;51.136;14.942;2023-03-20T08:39:01;5.63;;;3.38;;
37445;SDS011;23307;51.136;14.942;2023-03-20T08:41:27;6.07;;;4.43;;
37445;SDS011;23307;51.136;14.942;2023-03-20T08:43:52;4.20;;;3.80;;
37445;SDS011;23307;51.136;14.942;2023-03-20T08:46:17;5.25;;;4.25;;
37445;SDS011;23307;51.136;14.942;2023-03-20T08:48:43;5.70;;;4.20;;
37445;SDS011;23307;51.136;14.942;2023-03-20T08:51:08;4.07;;;3.67;;
37445;SDS011;23307;51.136;14.942;2023-03-20T08:53:34;4.43;;;3.80;;
37445;SDS011;23307;51.136;14.942;2023-03-20T08:56:00;3.80;;;3.50;;
37445;SDS011;23307;51.136;14.942;2023-03-20T08:58:26;4.47;;;3.20;;
37445;SDS011;23307;51.136;14.942;2023-03-20T09:00:52;3.72;;;3.38;;
37445;SDS011;23307;51.136;14.942;2023-03-20T09:03:19;4.47;;;3.53;;
37445;SDS011;23307;51.136;14.942;2023-03-20T09:05:45;4.90;;;3.78;;
37445;SDS011;23307;51.136;14.942;2023-03-20T09:08:12;5.18;;;3.50;;
37445;SDS011;23307;51.136;14.942;2023-03-20T09:10:38;3.92;;;3.60;;
37445;SDS011;23307;51.136;14.942;2023-03-20T09:13:04;4.30;;;3.83;;
37445;SDS011;23307;51.136;14.942;2023-03-20T09:15:30;4.40;;;3.92;;
37445;SDS011;23307;51.136;14.942;2023-03-20T09:17:56;3.90;;;3.58;;
37445;SDS011;23307;51.136;14.942;2023-03-20T09:20:21;4.68;;;4.13;;
37445;SDS011;23307;51.136;14.942;2023-03-20T09:22:47;3.92;;;3.42;;
37445;SDS011;23307;51.136;14.942;2023-03-20T09:25:13;4.30;;;3.90;;
37445;SDS011;23307;51.136;14.942;2023-03-20T09:27:38;4.15;;;3.63;;
37445;SDS011;23307;51.136;14.942;2023-03-20T09:30:05;4.78;;;4.25;;
37445;SDS011;23307;51.136;14.942;2023-03-20T09:32:31;4.43;;;3.53;;
37445;SDS011;23307;51.136;14.942;2023-03-20T09:34:58;4.30;;;3.90;;
37445;SDS011;23307;51.136;14.942;2023-03-20T09:37:24;4.07;;;3.60;;
37445;SDS011;23307;51.136;14.942;2023-03-20T09:39:50;4.10;;;3.70;;
37445;SDS011;23307;51.136;14.942;2023-03-20T09:42:28;3.92;;;3.63;;
37445;SDS011;23307;51.136;14.942;2023-03-20T09:45:10;4.38;;;3.97;;
37445;SDS011;23307;51.136;14.942;2023-03-20T09:47:57;4.13;;;3.75;;
37445;SDS011;23307;51.136;14.942;2023-03-20T09:50:42;5.80;;;3.83;;
37445;SDS011;23307;51.136;14.942;2023-03-20T09:53:23;5.40;;;3.80;;
37445;SDS011;23307;51.136;14.942;2023-03-20T09:55:58;3.70;;;3.35;;
37445;SDS011;23307;51.136;14.942;2023-03-20T09:58:29;4.00;;;3.60;;
37445;SDS011;23307;51.136;14.942;2023-03-20T10:01:01;4.13;;;3.63;;
37445;SDS011;23307;51.136;14.942;2023-03-20T10:03:31;4.40;;;4.00;;
37445;SDS011;23307;51.136;14.942;2023-03-20T10:06:14;4.63;;;3.80;;
37445;SDS011;23307;51.136;14.942;2023-03-20T10:08:41;4.50;;;4.07;;
37445;SDS011;23307;51.136;14.942;2023-03-20T10:16:44;5.00;;;4.50;;
37445;SDS011;23307;51.136;14.942;2023-03-20T10:19:41;4.78;;;4.32;;
37445;SDS011;23307;51.136;14.942;2023-03-20T10:22:22;4.43;;;4.03;;
37445;SDS011;23307;51.136;14.942;2023-03-20T10:27:27;4.22;;;3.83;;
37445;SDS011;23307;51.136;14.942;2023-03-20T10:30:21;4.75;;;4.35;;
37445;SDS011;23307;51.136;14.942;2023-03-20T10:32:57;3.80;;;3.40;;
37445;SDS011;23307;51.136;14.942;2023-03-20T10:35:46;3.40;;;3.10;;
37445;SDS011;23307;51.136;14.942;2023-03-20T10:41:12;4.30;;;3.70;;
37445;SDS011;23307;51.136;14.942;2023-03-20T10:43:41;3.28;;;3.00;;
37445;SDS011;23307;51.136;14.942;2023-03-20T10:46:10;4.05;;;3.35;;
37445;SDS011;23307;51.136;14.942;2023-03-20T10:48:51;4.22;;;3.83;;
37445;SDS011;23307;51.136;14.942;2023-03-20T10:51:40;4.75;;;3.60;;
37445;SDS011;23307;51.136;14.942;2023-03-20T10:54:22;5.18;;;4.45;;
37445;SDS011;23307;51.136;14.942;2023-03-20T10:56:52;5.55;;;5.03;;
37445;SDS011;23307;51.136;14.942;2023-03-20T11:01:47;5.53;;;4.78;;
37445;SDS011;23307;51.136;14.942;2023-03-20T11:04:13;5.30;;;4.80;;
37445;SDS011;23307;51.136;14.942;2023-03-20T11:06:46;4.93;;;4.32;;
37445;SDS011;23307;51.136;14.942;2023-03-20T11:09:20;4.65;;;4.25;;
37445;SDS011;23307;51.136;14.942;2023-03-20T11:11:48;4.70;;;4.13;;
37445;SDS011;23307;51.136;14.942;2023-03-20T11:14:20;5.50;;;4.15;;
37445;SDS011;23307;51.136;14.942;2023-03-20T11:16:48;4.95;;;4.45;;
37445;SDS011;23307;51.136;14.942;2023-03-20T11:19:16;4.60;;;4.20;;
37445;SDS011;23307;51.136;14.942;2023-03-20T11:21:46;5.88;;;4.10;;
37445;SDS011;23307;51.136;14.942;2023-03-20T11:24:21;5.60;;;5.10;;
37445;SDS011;23307;51.136;14.942;2023-03-20T11:26:50;5.82;;;5.22;;
37445;SDS011;23307;51.136;14.942;2023-03-20T11:29:28;6.32;;;5.68;;
37445;SDS011;23307;51.136;14.942;2023-03-20T11:32:01;6.85;;;6.25;;
37445;SDS011;23307;51.136;14.942;2023-03-20T11:34:32;6.95;;;5.78;;
37445;SDS011;23307;51.136;14.942;2023-03-20T11:37:05;7.50;;;6.53;;
37445;SDS011;23307;51.136;14.942;2023-03-20T11:39:51;7.97;;;7.28;;
37445;SDS011;23307;51.136;14.942;2023-03-20T11:42:22;8.18;;;7.38;;
37445;SDS011;23307;51.136;14.942;2023-03-20T11:44:55;8.25;;;7.55;;
37445;SDS011;23307;51.136;14.942;2023-03-20T11:47:24;5.50;;;5.00;;
37445;SDS011;23307;51.136;14.942;2023-03-20T11:49:58;6.57;;;5.95;;
37445;SDS011;23307;51.136;14.942;2023-03-20T11:52:28;9.35;;;8.45;;
37445;SDS011;23307;51.136;14.942;2023-03-20T11:54:57;10.43;;;9.38;;
37445;SDS011;23307;51.136;14.942;2023-03-20T11:57:32;10.20;;;9.30;;
37445;SDS011;23307;51.136;14.942;2023-03-20T12:00:03;10.60;;;7.93;;
37445;SDS011;23307;51.136;14.942;2023-03-20T12:02:29;11.30;;;10.25;;
37445;SDS011;23307;51.136;14.942;2023-03-20T12:04:58;10.93;;;9.90;;
37445;SDS011;23307;51.136;14.942;2023-03-20T12:07:26;12.57;;;11.38;;
37445;SDS011;23307;51.136;14.942;2023-03-20T12:09:56;13.07;;;11.68;;
37445;SDS011;23307;51.136;14.942;2023-03-20T12:12:37;13.95;;;12.45;;
37445;SDS011;23307;51.136;14.942;2023-03-20T12:18:00;14.10;;;12.60;;
37445;SDS011;23307;51.136;14.942;2023-03-20T12:20:36;14.30;;;12.90;;
37445;SDS011;23307;51.136;14.942;2023-03-20T12:31:14;17.88;;;15.73;;
37445;SDS011;23307;51.136;14.942;2023-03-20T12:36:36;16.13;;;13.85;;
37445;SDS011;23307;51.136;14.942;2023-03-20T12:39:09;18.23;;;14.38;;
37445;SDS011;23307;51.136;14.942;2023-03-20T12:44:32;18.70;;;15.35;;
37445;SDS011;23307;51.136;14.942;2023-03-20T12:47:14;15.57;;;13.05;;
37445;SDS011;23307;51.136;14.942;2023-03-20T12:55:38;21.23;;;17.17;;
37445;SDS011;23307;51.136;14.942;2023-03-20T13:00:49;22.05;;;16.10;;
37445;SDS011;23307;51.136;14.942;2023-03-20T13:09:26;19.75;;;14.60;;
37445;SDS011;23307;51.136;14.942;2023-03-20T13:14:51;20.08;;;13.10;;
37445;SDS011;23307;51.136;14.942;2023-03-20T13:28:02;18.80;;;14.48;;
37445;SDS011;23307;51.136;14.942;2023-03-20T13:30:36;21.73;;;14.63;;
37445;SDS011;23307;51.136;14.942;2023-03-20T13:38:47;18.00;;;13.05;;
37445;SDS011;23307;51.136;14.942;2023-03-20T13:41:18;16.85;;;13.52;;
37445;SDS011;23307;51.136;14.942;2023-03-20T13:43:46;17.17;;;13.25;;
37445;SDS011;23307;51.136;14.942;2023-03-20T13:46:19;18.13;;;13.27;;
37445;SDS011;23307;51.136;14.942;2023-03-20T13:48:53;18.80;;;13.02;;
37445;SDS011;23307;51.136;14.942;2023-03-20T13:51:25;15.13;;;11.32;;
37445;SDS011;23307;51.136;14.942;2023-03-20T13:54:21;16.48;;;10.75;;
37445;SDS011;23307;51.136;14.942;2023-03-20T14:05:36;15.88;;;11.50;;
37445;SDS011;23307;51.136;14.942;2023-03-20T14:08:20;17.63;;;12.25;;
37445;SDS011;23307;51.136;14.942;2023-03-20T14:14:12;18.75;;;14.23;;
37445;SDS011;23307;51.136;14.942;2023-03-20T14:16:40;19.92;;;15.10;;
37445;SDS011;23307;51.136;14.942;2023-03-20T14:19:17;18.25;;;14.63;;
37445;SDS011;23307;51.136;14.942;2023-03-20T14:21:45;18.92;;;14.77;;
37445;SDS011;23307;51.136;14.942;2023-03-20T14:24:12;19.25;;;15.52;;
37445;SDS011;23307;51.136;14.942;2023-03-20T14:26:45;19.25;;;15.32;;
37445;SDS011;23307;51.136;14.942;2023-03-20T14:31:39;19.50;;;16.13;;
37445;SDS011;23307;51.136;14.942;2023-03-20T14:50:20;20.27;;;15.88;;
37445;SDS011;23307;51.136;14.942;2023-03-20T14:57:54;20.48;;;16.35;;
37445;SDS011;23307;51.136;14.942;2023-03-20T15:00:21;19.52;;;15.25;;
37445;SDS011;23307;51.136;14.942;2023-03-20T15:03:00;20.10;;;15.63;;
37445;SDS011;23307;51.136;14.942;2023-03-20T15:05:34;20.00;;;15.05;;
37445;SDS011;23307;51.136;14.942;2023-03-20T15:08:03;20.88;;;14.25;;
37445;SDS011;23307;51.136;14.942;2023-03-20T15:10:36;20.17;;;15.75;;
37445;SDS011;23307;51.136;14.942;2023-03-20T15:13:11;20.48;;;15.95;;
37445;SDS011;23307;51.136;14.942;2023-03-20T15:15:38;22.27;;;16.45;;
37445;SDS011;23307;51.136;14.942;2023-03-20T15:18:20;21.13;;;16.08;;
37445;SDS011;23307;51.136;14.942;2023-03-20T15:20:47;24.80;;;15.55;;
37445;SDS011;23307;51.136;14.942;2023-03-20T15:23:12;19.02;;;12.95;;
37445;SDS011;23307;51.136;14.942;2023-03-20T15:25:38;21.13;;;15.43;;
37445;SDS011;23307;51.136;14.942;2023-03-20T15:28:13;19.88;;;15.45;;
37445;SDS011;23307;51.136;14.942;2023-03-20T15:30:41;19.25;;;14.85;;
37445;SDS011;23307;51.136;14.942;2023-03-20T15:33:13;19.05;;;14.98;;
37445;SDS011;23307;51.136;14.942;2023-03-20T15:35:42;20.73;;;15.43;;
37445;SDS011;23307;51.136;14.942;2023-03-20T15:38:07;20.13;;;15.27;;
37445;SDS011;23307;51.136;14.942;2023-03-20T15:40:38;19.70;;;15.00;;
37445;SDS011;23307;51.136;14.942;2023-03-20T15:43:09;20.90;;;14.93;;
37445;SDS011;23307;51.136;14.942;2023-03-20T15:45:44;20.17;;;15.57;;
37445;SDS011;23307;51.136;14.942;2023-03-20T15:48:13;20.55;;;14.50;;
37445;SDS011;23307;51.136;14.942;2023-03-20T15:50:40;19.60;;;14.98;;
37445;SDS011;23307;51.136;14.942;2023-03-20T15:53:12;21.05;;;14.68;;
37445;SDS011;23307;51.136;14.942;2023-03-20T15:55:45;20.42;;;15.13;;
37445;SDS011;23307;51.136;14.942;2023-03-20T15:58:13;20.02;;;15.35;;
37445;SDS011;23307;51.136;14.942;2023-03-20T16:00:43;19.88;;;15.43;;
37445;SDS011;23307;51.136;14.942;2023-03-20T16:03:15;21.88;;;15.23;;
37445;SDS011;23307;51.136;14.942;2023-03-20T16:05:45;20.58;;;15.65;;
37445;SDS011;23307;51.136;14.942;2023-03-20T16:08:23;21.35;;;16.00;;
37445;SDS011;23307;51.136;14.942;2023-03-20T16:10:54;20.73;;;16.27;;
37445;SDS011;23307;51.136;14.942;2023-03-20T16:13:30;21.23;;;15.27;;
37445;SDS011;23307;51.136;14.942;2023-03-20T16:15:59;19.02;;;14.95;;
37445;SDS011;23307;51.136;14.942;2023-03-20T16:18:27;20.98;;;15.73;;
37445;SDS011;23307;51.136;14.942;2023-03-20T16:20:57;21.38;;;16.23;;
37445;SDS011;23307;51.136;14.942;2023-03-20T16:23:36;21.55;;;14.68;;
37445;SDS011;23307;51.136;14.942;2023-03-20T16:26:06;19.55;;;15.48;;
37445;SDS011;23307;51.136;14.942;2023-03-20T16:28:35;22.00;;;15.18;;
37445;SDS011;23307;51.136;14.942;2023-03-20T16:31:08;19.90;;;14.77;;
37445;SDS011;23307;51.136;14.942;2023-03-20T16:33:39;21.08;;;15.52;;
37445;SDS011;23307;51.136;14.942;2023-03-20T16:36:06;20.98;;;16.23;;
37445;SDS011;23307;51.136;14.942;2023-03-20T16:38:33;21.20;;;15.45;;
37445;SDS011;23307;51.136;14.942;2023-03-20T16:41:14;21.17;;;16.45;;
37445;SDS011;23307;51.136;14.942;2023-03-20T16:44:05;20.52;;;15.40;;